createdAt,value
2023-02-25T00:00:17.728Z,14.47
2023-02-25T00:00:49.636Z,15.77
2023-02-25T00:01:24.241Z,15.03
2023-02-25T00:02:03.782Z,14.90
2023-02-25T00:02:36.870Z,15.40
2023-02-25T00:03:08.769Z,16.00
2023-02-25T00:03:41.634Z,16.43
2023-02-25T00:04:13.516Z,16.40
2023-02-25T00:04:45.373Z,17.33
2023-02-25T00:05:19.412Z,17.70
2023-02-25T00:05:51.253Z,17.73
2023-02-25T00:06:24.728Z,16.70
2023-02-25T00:06:56.750Z,17.70
2023-02-25T00:07:29.094Z,17.57
2023-02-25T00:08:01.148Z,18.23
2023-02-25T00:08:33.311Z,17.60
2023-02-25T00:09:06.656Z,16.80
2023-02-25T00:09:38.527Z,16.57
2023-02-25T00:10:13.334Z,16.67
2023-02-25T00:10:45.132Z,16.67
2023-02-25T00:11:20.309Z,16.70
2023-02-25T00:11:52.108Z,17.30
2023-02-25T00:12:23.897Z,17.50
2023-02-25T00:13:00.746Z,16.13
2023-02-25T00:13:40.347Z,16.73
2023-02-25T00:14:12.201Z,17.07
2023-02-25T00:14:45.993Z,17.07
2023-02-25T00:15:17.830Z,17.43
2023-02-25T00:15:49.625Z,16.90
2023-02-25T00:16:23.745Z,15.67
2023-02-25T00:16:56.433Z,17.57
2023-02-25T00:17:28.241Z,17.63
2023-02-25T00:18:00.136Z,17.33
2023-02-25T00:18:32.320Z,16.37
2023-02-25T00:19:04.272Z,15.90
2023-02-25T00:19:36.098Z,15.33
2023-02-25T00:20:15.606Z,15.33
2023-02-25T00:20:47.421Z,15.47
2023-02-25T00:21:19.343Z,15.37
2023-02-25T00:21:51.314Z,16.50
2023-02-25T00:22:24.089Z,15.47
2023-02-25T00:22:55.926Z,15.73
2023-02-25T00:23:28.662Z,15.23
2023-02-25T00:24:15.319Z,14.87
2023-02-25T00:24:47.958Z,15.53
2023-02-25T00:25:19.796Z,16.03
2023-02-25T00:26:00.373Z,15.43
2023-02-25T00:26:32.203Z,15.20
2023-02-25T00:27:05.092Z,14.93
2023-02-25T00:27:37.299Z,14.20
2023-02-25T00:28:09.158Z,15.33
2023-02-25T00:28:41.824Z,14.17
2023-02-25T00:29:14.247Z,14.50
2023-02-25T00:29:46.114Z,15.23
2023-02-25T00:30:17.998Z,15.30
2023-02-25T00:30:50.703Z,14.93
2023-02-25T00:31:24.540Z,15.17
2023-02-25T00:31:56.852Z,14.50
2023-02-25T00:32:29.147Z,15.20
2023-02-25T00:33:01.770Z,15.73
2023-02-25T00:33:33.755Z,15.23
2023-02-25T00:34:05.666Z,14.37
2023-02-25T00:34:37.508Z,14.47
2023-02-25T00:35:12.928Z,14.87
2023-02-25T00:35:44.794Z,15.37
2023-02-25T00:36:21.405Z,15.03
2023-02-25T00:36:54.628Z,16.07
2023-02-25T00:37:26.418Z,15.50
2023-02-25T00:38:10.043Z,15.87
2023-02-25T00:38:48.548Z,15.50
2023-02-25T00:39:20.616Z,14.77
2023-02-25T00:39:52.463Z,14.17
2023-02-25T00:40:24.848Z,15.43
2023-02-25T00:40:56.662Z,15.33
2023-02-25T00:41:30.944Z,15.03
2023-02-25T00:42:02.727Z,14.57
2023-02-25T00:42:34.594Z,14.40
2023-02-25T00:43:07.028Z,14.60
2023-02-25T00:43:42.366Z,14.83
2023-02-25T00:44:17.941Z,14.47
2023-02-25T00:44:51.144Z,14.50
2023-02-25T00:45:23.106Z,14.63
2023-02-25T00:45:54.929Z,14.20
2023-02-25T00:46:28.489Z,14.23
2023-02-25T00:47:00.377Z,14.77
2023-02-25T00:47:32.305Z,15.00
2023-02-25T00:48:04.136Z,15.10
2023-02-25T00:48:37.163Z,15.53
2023-02-25T00:49:08.965Z,14.97
2023-02-25T00:49:41.521Z,15.57
2023-02-25T00:50:14.416Z,15.40
2023-02-25T00:50:46.228Z,15.80
2023-02-25T00:51:27.338Z,14.57
2023-02-25T00:52:00.180Z,14.93
2023-02-25T00:52:33.855Z,14.53
2023-02-25T00:53:05.688Z,14.37
2023-02-25T00:53:38.220Z,14.37
2023-02-25T00:54:10.166Z,15.07
2023-02-25T00:54:42.055Z,15.17
2023-02-25T00:55:13.835Z,15.00
2023-02-25T00:55:45.743Z,14.67
2023-02-25T00:56:20.656Z,15.10
2023-02-25T00:56:53.326Z,14.03
2023-02-25T00:57:25.416Z,14.10
2023-02-25T00:57:57.285Z,15.37
2023-02-25T00:58:29.231Z,15.67
2023-02-25T00:59:00.995Z,14.87
2023-02-25T00:59:33.218Z,15.37
2023-02-25T01:00:11.282Z,15.57
2023-02-25T01:00:51.585Z,14.60
2023-02-25T01:01:33.704Z,14.73
2023-02-25T01:02:05.520Z,14.03
2023-02-25T01:02:37.445Z,14.83
2023-02-25T01:03:09.357Z,15.40
2023-02-25T01:03:41.211Z,15.60
2023-02-25T01:04:13.604Z,15.17
2023-02-25T01:04:45.584Z,14.70
2023-02-25T01:05:17.870Z,14.90
2023-02-25T01:05:50.026Z,14.80
2023-02-25T01:06:23.334Z,14.97
2023-02-25T01:06:55.565Z,15.40
2023-02-25T01:07:27.430Z,15.17
2023-02-25T01:07:59.217Z,15.13
2023-02-25T01:08:31.136Z,15.00
2023-02-25T01:09:06.840Z,14.73
2023-02-25T01:09:38.933Z,15.17
2023-02-25T01:10:11.428Z,15.27
2023-02-25T01:10:43.807Z,15.37
2023-02-25T01:11:16.304Z,15.13
2023-02-25T01:11:49.258Z,15.03
2023-02-25T01:12:21.084Z,14.63
2023-02-25T01:12:52.889Z,14.93
2023-02-25T01:13:25.320Z,15.33
2023-02-25T01:14:03.057Z,14.87
2023-02-25T01:14:35.352Z,14.77
2023-02-25T01:15:07.655Z,14.90
2023-02-25T01:15:39.583Z,15.40
2023-02-25T01:16:17.298Z,14.90
2023-02-25T01:16:51.191Z,15.37
2023-02-25T01:17:23.565Z,16.10
2023-02-25T01:17:55.440Z,15.57
2023-02-25T01:18:27.777Z,15.47
2023-02-25T01:19:04.342Z,15.27
2023-02-25T01:19:36.125Z,16.23
2023-02-25T01:20:12.526Z,15.53
2023-02-25T01:20:44.352Z,15.33
2023-02-25T01:21:18.784Z,15.23
2023-02-25T01:21:54.535Z,15.77
2023-02-25T01:22:26.556Z,15.27
2023-02-25T01:22:58.647Z,15.70
2023-02-25T01:23:30.604Z,15.73
2023-02-25T01:24:09.012Z,15.43
2023-02-25T01:24:41.227Z,15.63
2023-02-25T01:25:14.164Z,14.80
2023-02-25T01:25:45.962Z,14.13
2023-02-25T01:26:17.776Z,14.13
2023-02-25T01:26:53.473Z,15.07
2023-02-25T01:27:25.358Z,14.67
2023-02-25T01:27:58.009Z,14.90
2023-02-25T01:28:29.820Z,14.60
2023-02-25T01:29:01.848Z,15.13
2023-02-25T01:29:40.412Z,15.00
2023-02-25T01:30:12.456Z,15.93
2023-02-25T01:30:45.128Z,15.10
2023-02-25T01:31:25.166Z,14.97
2023-02-25T01:32:02.542Z,15.47
2023-02-25T01:32:35.127Z,14.93
2023-02-25T01:33:07.128Z,15.17
2023-02-25T01:33:39.216Z,15.37
2023-02-25T01:34:15.432Z,15.90
2023-02-25T01:34:47.217Z,15.87
2023-02-25T01:35:51.463Z,15.20
2023-02-25T01:36:24.090Z,16.00
2023-02-25T01:36:57.040Z,15.13
2023-02-25T01:37:28.882Z,14.57
2023-02-25T01:38:00.717Z,15.20
2023-02-25T01:38:33.805Z,14.93
2023-02-25T01:39:09.994Z,14.73
2023-02-25T01:39:41.953Z,14.53
2023-02-25T01:40:18.074Z,14.63
2023-02-25T01:40:58.471Z,14.90
2023-02-25T01:41:33.084Z,14.60
2023-02-25T01:42:14.420Z,14.43
2023-02-25T01:42:46.935Z,13.97
2023-02-25T01:43:19.171Z,14.03
2023-02-25T01:44:09.172Z,14.73
2023-02-25T01:45:19.534Z,14.73
2023-02-25T01:45:54.343Z,14.53
2023-02-25T01:46:26.317Z,14.30
2023-02-25T01:46:59.008Z,14.33
2023-02-25T01:47:38.010Z,14.53
2023-02-25T01:48:15.711Z,14.03
2023-02-25T01:48:47.517Z,14.53
2023-02-25T01:49:29.165Z,14.00
2023-02-25T01:50:01.061Z,14.43
2023-02-25T01:50:52.263Z,14.40
2023-02-25T01:52:08.798Z,14.70
2023-02-25T01:52:42.551Z,14.60
2023-02-25T01:53:17.714Z,14.73
2023-02-25T01:53:49.608Z,14.53
2023-02-25T01:54:21.945Z,14.10
2023-02-25T01:54:57.554Z,14.70
2023-02-25T01:55:29.744Z,14.20
2023-02-25T01:56:02.898Z,14.63
2023-02-25T01:56:39.539Z,14.33
2023-02-25T01:57:14.127Z,15.57
2023-02-25T01:57:48.019Z,15.77
2023-02-25T01:58:22.052Z,15.60
2023-02-25T01:58:54.813Z,14.73
2023-02-25T01:59:29.375Z,14.13
2023-02-25T02:00:01.973Z,14.77
2023-02-25T02:00:35.021Z,14.23
2023-02-25T02:01:12.831Z,13.93
2023-02-25T02:01:45.211Z,14.17
2023-02-25T02:02:23.513Z,14.10
2023-02-25T02:02:57.545Z,13.87
2023-02-25T02:03:35.448Z,14.03
2023-02-25T02:04:10.762Z,14.07
2023-02-25T02:04:44.724Z,13.90
2023-02-25T02:05:17.325Z,14.47
2023-02-25T02:06:09.713Z,13.37
2023-02-25T02:06:44.678Z,14.57
2023-02-25T02:07:17.534Z,15.33
2023-02-25T02:07:49.322Z,14.23
2023-02-25T02:08:21.325Z,14.00
2023-02-25T02:08:53.192Z,13.83
2023-02-25T02:09:27.732Z,14.37
2023-02-25T02:10:00.664Z,13.70
2023-02-25T02:10:32.624Z,13.53
2023-02-25T02:11:04.912Z,13.90
2023-02-25T02:11:36.732Z,13.70
2023-02-25T02:12:08.659Z,13.90
2023-02-25T02:12:46.278Z,14.20
2023-02-25T02:13:19.226Z,13.53
2023-02-25T02:13:56.636Z,14.20
2023-02-25T02:14:42.789Z,14.73
2023-02-25T02:15:15.873Z,14.30
2023-02-25T02:16:28.818Z,14.43
2023-02-25T02:17:14.316Z,13.77
2023-02-25T02:17:59.449Z,13.93
2023-02-25T02:18:35.659Z,13.90
2023-02-25T02:19:34.929Z,14.43
2023-02-25T02:20:54.421Z,13.63
2023-02-25T02:21:45.011Z,14.03
2023-02-25T02:22:46.102Z,13.60
2023-02-25T02:23:44.697Z,14.33
2023-02-25T02:24:22.148Z,13.67
2023-02-25T02:25:15.029Z,13.90
2023-02-25T02:26:19.034Z,12.43
2023-02-25T02:27:03.745Z,13.00
2023-02-25T02:27:53.341Z,13.97
2023-02-25T02:29:02.147Z,12.60
2023-02-25T02:29:52.288Z,13.57
2023-02-25T02:30:54.463Z,14.33
2023-02-25T02:32:37.232Z,12.97
2023-02-25T02:33:44.056Z,13.77
2023-02-25T02:34:26.196Z,13.27
2023-02-25T02:35:06.864Z,13.70
2023-02-25T02:35:47.150Z,13.37
2023-02-25T02:36:47.828Z,13.17
2023-02-25T02:37:26.865Z,12.97
2023-02-25T02:38:22.693Z,13.13
2023-02-25T02:39:08.731Z,12.77
2023-02-25T02:39:59.334Z,13.37
2023-02-25T02:40:52.511Z,13.13
2023-02-25T02:41:32.070Z,13.13
2023-02-25T02:42:31.384Z,13.30
2023-02-25T02:43:35.901Z,14.17
2023-02-25T02:44:20.955Z,12.67
2023-02-25T02:44:57.516Z,13.47
2023-02-25T02:45:35.323Z,12.43
2023-02-25T02:46:21.233Z,13.07
2023-02-25T02:47:03.415Z,12.83
2023-02-25T02:47:39.677Z,13.43
2023-02-25T02:48:20.685Z,12.63
2023-02-25T02:49:09.441Z,12.63
2023-02-25T02:49:49.273Z,13.33
2023-02-25T02:50:36.793Z,14.40
2023-02-25T02:51:20.819Z,13.80
2023-02-25T02:52:04.193Z,13.97
2023-02-25T02:52:43.631Z,13.23
2023-02-25T02:53:33.150Z,13.63
2023-02-25T02:54:10.625Z,13.13
2023-02-25T02:54:49.724Z,13.60
2023-02-25T02:55:31.472Z,13.30
2023-02-25T02:56:07.560Z,12.90
2023-02-25T02:56:44.322Z,12.83
2023-02-25T02:57:21.329Z,12.83
2023-02-25T02:58:01.533Z,13.50
2023-02-25T02:58:37.261Z,13.33
2023-02-25T02:59:26.140Z,13.23
2023-02-25T03:00:26.681Z,12.90
2023-02-25T03:01:05.627Z,12.93
2023-02-25T03:01:46.218Z,13.30
2023-02-25T03:02:24.181Z,13.70
2023-02-25T03:03:02.851Z,14.27
2023-02-25T03:03:41.813Z,15.40
2023-02-25T03:04:22.687Z,13.63
2023-02-25T03:05:01.547Z,13.83
2023-02-25T03:05:35.288Z,15.10
2023-02-25T03:06:20.196Z,15.13
2023-02-25T03:07:00.021Z,14.50
2023-02-25T03:07:36.982Z,14.37
2023-02-25T03:08:15.435Z,14.03
2023-02-25T03:08:56.118Z,13.57
2023-02-25T03:09:50.637Z,14.23
2023-02-25T03:10:23.345Z,14.30
2023-02-25T03:10:55.291Z,13.97
2023-02-25T03:11:27.082Z,14.07
2023-02-25T03:11:59.050Z,14.30
2023-02-25T03:12:31.022Z,15.17
2023-02-25T03:13:02.913Z,15.57
2023-02-25T03:13:34.845Z,14.77
2023-02-25T03:14:09.169Z,14.63
2023-02-25T03:14:41.155Z,14.43
2023-02-25T03:15:14.623Z,14.30
2023-02-25T03:15:49.260Z,14.00
2023-02-25T03:16:31.243Z,13.80
2023-02-25T03:17:09.818Z,14.00
2023-02-25T03:18:01.496Z,14.33
2023-02-25T03:18:43.351Z,13.47
2023-02-25T03:19:31.808Z,13.33
2023-02-25T03:20:14.465Z,13.40
2023-02-25T03:20:50.409Z,13.93
2023-02-25T03:21:30.556Z,13.23
2023-02-25T03:22:12.974Z,13.77
2023-02-25T03:22:48.997Z,14.13
2023-02-25T03:23:29.580Z,14.13
2023-02-25T03:24:05.523Z,14.57
2023-02-25T03:24:53.653Z,13.43
2023-02-25T03:25:36.049Z,14.10
2023-02-25T03:26:25.910Z,14.83
2023-02-25T03:26:57.663Z,14.60
2023-02-25T03:27:35.519Z,13.97
2023-02-25T03:28:33.411Z,13.43
2023-02-25T03:29:05.280Z,14.43
2023-02-25T03:29:37.114Z,14.37
2023-02-25T03:30:48.945Z,14.83
2023-02-25T03:31:29.639Z,14.03
2023-02-25T03:32:09.668Z,14.17
2023-02-25T03:32:48.461Z,14.40
2023-02-25T03:33:38.659Z,14.77
2023-02-25T03:34:17.922Z,14.80
2023-02-25T03:34:58.013Z,14.43
2023-02-25T03:35:32.695Z,14.30
2023-02-25T03:36:13.205Z,13.60
2023-02-25T03:36:59.457Z,13.93
2023-02-25T03:37:34.775Z,14.63
2023-02-25T03:38:14.568Z,14.20
2023-02-25T03:38:51.665Z,15.47
2023-02-25T03:39:33.372Z,15.33
2023-02-25T03:40:14.136Z,13.80
2023-02-25T03:40:50.153Z,14.23
2023-02-25T03:41:31.812Z,13.93
2023-02-25T03:42:06.274Z,15.13
2023-02-25T03:42:44.935Z,14.63
2023-02-25T03:43:25.644Z,14.23
2023-02-25T03:44:00.027Z,14.43
2023-02-25T03:44:37.407Z,14.30
2023-02-25T03:45:13.789Z,14.57
2023-02-25T03:45:45.879Z,15.30
2023-02-25T03:46:20.783Z,14.40
2023-02-25T03:46:55.371Z,14.77
2023-02-25T03:47:30.518Z,14.33
2023-02-25T03:48:06.184Z,14.90
2023-02-25T03:48:39.202Z,14.73
2023-02-25T03:49:19.268Z,14.93
2023-02-25T03:50:03.103Z,14.13
2023-02-25T03:50:44.881Z,14.43
2023-02-25T03:51:23.792Z,14.00
2023-02-25T03:51:59.757Z,14.40
2023-02-25T03:52:31.766Z,14.70
2023-02-25T03:53:04.701Z,14.93
2023-02-25T03:53:36.576Z,14.63
2023-02-25T03:54:08.539Z,14.73
2023-02-25T03:54:40.450Z,14.97
2023-02-25T03:55:15.848Z,15.07
2023-02-25T03:55:47.935Z,13.97
2023-02-25T03:56:20.099Z,14.87
2023-02-25T03:56:52.359Z,14.77
2023-02-25T03:57:27.574Z,14.90
2023-02-25T03:57:59.375Z,14.87
2023-02-25T03:58:36.009Z,14.50
2023-02-25T03:59:07.794Z,14.47
2023-02-25T03:59:39.772Z,14.63
2023-02-25T04:00:18.218Z,14.93
2023-02-25T04:00:55.249Z,14.67
2023-02-25T04:01:30.860Z,14.43
2023-02-25T04:02:03.580Z,14.33
2023-02-25T04:02:35.515Z,14.63
2023-02-25T04:03:07.355Z,14.67
2023-02-25T04:03:39.483Z,14.43
2023-02-25T04:04:11.265Z,14.50
2023-02-25T04:04:43.156Z,14.47
2023-02-25T04:05:17.688Z,13.87
2023-02-25T04:05:49.480Z,14.00
2023-02-25T04:06:23.547Z,14.00
2023-02-25T04:06:55.571Z,14.63
2023-02-25T04:07:27.385Z,14.90
2023-02-25T04:08:00.085Z,15.07
2023-02-25T04:08:32.066Z,14.93
2023-02-25T04:09:04.729Z,14.90
2023-02-25T04:09:36.495Z,14.57
2023-02-25T04:10:11.226Z,14.63
2023-02-25T04:10:46.999Z,15.03
2023-02-25T04:11:18.817Z,15.43
2023-02-25T04:11:50.593Z,14.77
2023-02-25T04:12:22.369Z,14.13
2023-02-25T04:12:55.345Z,14.03
2023-02-25T04:13:27.142Z,15.03
2023-02-25T04:13:59.065Z,15.73
2023-02-25T04:14:30.853Z,14.57
2023-02-25T04:15:04.016Z,15.03
2023-02-25T04:15:36.466Z,16.00
2023-02-25T04:16:11.059Z,16.10
2023-02-25T04:16:42.993Z,15.67
2023-02-25T04:17:14.840Z,16.10
2023-02-25T04:17:47.261Z,15.53
2023-02-25T04:18:19.050Z,15.87
2023-02-25T04:18:50.835Z,16.20
2023-02-25T04:19:22.657Z,16.70
2023-02-25T04:19:54.522Z,16.67
2023-02-25T04:20:26.341Z,16.30
2023-02-25T04:20:58.124Z,15.47
2023-02-25T04:21:36.507Z,15.67
2023-02-25T04:22:08.487Z,16.30
2023-02-25T04:22:40.657Z,15.43
2023-02-25T04:23:14.897Z,15.47
2023-02-25T04:23:46.657Z,16.13
2023-02-25T04:24:18.456Z,15.33
2023-02-25T04:24:50.638Z,15.57
2023-02-25T04:25:22.411Z,15.87
2023-02-25T04:25:54.226Z,15.10
2023-02-25T04:26:26.110Z,15.30
2023-02-25T04:26:58.676Z,16.40
2023-02-25T04:27:32.551Z,15.77
2023-02-25T04:28:04.529Z,15.43
2023-02-25T04:28:36.321Z,15.80
2023-02-25T04:29:08.158Z,14.40
2023-02-25T04:29:39.978Z,14.70
2023-02-25T04:30:13.428Z,15.27
2023-02-25T04:30:45.334Z,14.90
2023-02-25T04:31:17.367Z,14.90
2023-02-25T04:31:49.379Z,15.10
2023-02-25T04:32:21.421Z,15.83
2023-02-25T04:32:53.398Z,14.60
2023-02-25T04:33:25.252Z,14.13
2023-02-25T04:33:58.367Z,14.60
2023-02-25T04:34:30.199Z,13.90
2023-02-25T04:35:03.325Z,14.17
2023-02-25T04:35:35.240Z,14.67
2023-02-25T04:36:25.677Z,15.13
2023-02-25T04:36:57.557Z,14.90
2023-02-25T04:37:30.420Z,14.80
2023-02-25T04:38:02.508Z,14.13
2023-02-25T04:38:34.263Z,14.80
2023-02-25T04:39:06.390Z,15.03
2023-02-25T04:39:38.226Z,14.70
2023-02-25T04:40:16.145Z,14.23
2023-02-25T04:40:47.859Z,14.97
2023-02-25T04:41:19.775Z,14.90
2023-02-25T04:41:51.557Z,14.63
2023-02-25T04:42:23.451Z,14.13
2023-02-25T04:42:55.210Z,13.80
2023-02-25T04:43:27.008Z,14.10
2023-02-25T04:43:59.955Z,15.03
2023-02-25T04:44:31.766Z,13.80
2023-02-25T04:45:04.138Z,14.43
2023-02-25T04:45:36.045Z,14.97
2023-02-25T04:46:07.871Z,14.67
2023-02-25T04:46:42.134Z,14.60
2023-02-25T04:47:14.114Z,14.00
2023-02-25T04:47:45.938Z,13.63
2023-02-25T04:48:24.351Z,13.63
2023-02-25T04:48:56.241Z,13.67
2023-02-25T04:49:28.126Z,13.50
2023-02-25T04:49:59.949Z,13.80
2023-02-25T04:50:31.837Z,13.93
2023-02-25T04:51:04.204Z,14.17
2023-02-25T04:51:37.730Z,14.07
2023-02-25T04:52:09.526Z,14.50
2023-02-25T04:52:41.330Z,14.07
2023-02-25T04:53:13.222Z,14.33
2023-02-25T04:53:46.847Z,14.63
2023-02-25T04:54:20.705Z,14.23
2023-02-25T04:54:52.547Z,14.57
2023-02-25T04:55:24.374Z,14.13
2023-02-25T04:55:56.177Z,14.57
2023-02-25T04:56:28.088Z,14.43
2023-02-25T04:56:59.879Z,13.73
2023-02-25T04:57:31.701Z,13.70
2023-02-25T04:58:03.599Z,13.87
2023-02-25T04:58:37.400Z,13.50
2023-02-25T04:59:11.411Z,13.17
2023-02-25T04:59:43.415Z,13.30
2023-02-25T05:00:24.098Z,13.17
2023-02-25T05:00:58.028Z,13.13
2023-02-25T05:01:31.636Z,13.23
2023-02-25T05:02:04.173Z,13.77
2023-02-25T05:02:36.045Z,13.20
2023-02-25T05:03:07.881Z,13.10
2023-02-25T05:03:40.818Z,13.77
2023-02-25T05:04:12.638Z,14.10
2023-02-25T05:04:44.658Z,13.90
2023-02-25T05:05:17.541Z,14.73
2023-02-25T05:05:49.309Z,13.37
2023-02-25T05:06:21.296Z,13.70
2023-02-25T05:06:53.164Z,13.50
2023-02-25T05:07:24.999Z,13.50
2023-02-25T05:07:56.762Z,13.00
2023-02-25T05:08:28.998Z,12.80
2023-02-25T05:09:00.875Z,12.53
2023-02-25T05:09:33.357Z,12.07
2023-02-25T05:10:07.025Z,12.33
2023-02-25T05:10:38.852Z,12.97
2023-02-25T05:11:10.763Z,14.27
2023-02-25T05:11:42.613Z,14.67
2023-02-25T05:12:14.869Z,13.93
2023-02-25T05:12:46.730Z,13.73
2023-02-25T05:13:19.561Z,18.17
2023-02-25T05:13:52.160Z,18.30
2023-02-25T05:14:24.309Z,18.47
2023-02-25T05:14:56.081Z,16.33
2023-02-25T05:15:27.967Z,15.50
2023-02-25T05:16:08.157Z,17.90
2023-02-25T05:16:40.077Z,19.20
2023-02-25T05:17:13.210Z,16.57
2023-02-25T05:17:45.082Z,15.77
2023-02-25T05:18:19.911Z,13.73
2023-02-25T05:18:52.340Z,16.17
2023-02-25T05:19:25.801Z,14.83
2023-02-25T05:19:58.648Z,15.77
2023-02-25T05:20:30.586Z,19.07
2023-02-25T05:21:02.431Z,16.77
2023-02-25T05:21:35.010Z,15.93
2023-02-25T05:22:06.984Z,14.40
2023-02-25T05:22:39.959Z,13.17
2023-02-25T05:23:12.653Z,13.53
2023-02-25T05:23:46.337Z,14.83
2023-02-25T05:24:19.035Z,12.83
2023-02-25T05:24:50.898Z,11.97
2023-02-25T05:25:22.867Z,12.53
2023-02-25T05:25:55.049Z,12.57
2023-02-25T05:26:26.888Z,12.30
2023-02-25T05:26:58.685Z,12.57
2023-02-25T05:27:30.549Z,11.90
2023-02-25T05:28:02.592Z,11.83
2023-02-25T05:28:34.994Z,12.30
2023-02-25T05:29:07.228Z,12.43
2023-02-25T05:29:39.100Z,12.73
2023-02-25T05:30:11.810Z,12.20
2023-02-25T05:30:43.629Z,12.27
2023-02-25T05:31:15.484Z,12.00
2023-02-25T05:31:47.927Z,13.10
2023-02-25T05:32:20.045Z,12.37
2023-02-25T05:32:52.232Z,11.93
2023-02-25T05:33:24.650Z,11.57
2023-02-25T05:33:56.479Z,12.67
2023-02-25T05:34:28.363Z,11.60
2023-02-25T05:35:00.732Z,12.70
2023-02-25T05:35:33.134Z,12.40
2023-02-25T05:36:14.350Z,12.60
2023-02-25T05:36:46.954Z,13.20
2023-02-25T05:37:18.766Z,13.37
2023-02-25T05:37:50.622Z,11.70
2023-02-25T05:38:22.597Z,12.83
2023-02-25T05:38:56.050Z,12.47
2023-02-25T05:39:27.785Z,11.93
2023-02-25T05:39:59.638Z,12.60
2023-02-25T05:40:31.428Z,11.73
2023-02-25T05:41:08.498Z,11.40
2023-02-25T05:41:40.836Z,11.50
2023-02-25T05:42:12.653Z,12.27
2023-02-25T05:42:44.492Z,11.40
2023-02-25T05:43:18.414Z,11.80
2023-02-25T05:43:50.261Z,11.57
2023-02-25T05:44:22.323Z,11.20
2023-02-25T05:44:54.383Z,11.07
2023-02-25T05:45:26.300Z,11.30
2023-02-25T05:46:00.367Z,11.00
2023-02-25T05:46:32.191Z,11.17
2023-02-25T05:47:04.130Z,11.07
2023-02-25T05:47:36.331Z,10.83
2023-02-25T05:48:08.303Z,10.83
2023-02-25T05:48:46.113Z,10.03
2023-02-25T05:49:17.931Z,10.20
2023-02-25T05:49:49.757Z,10.47
2023-02-25T05:50:21.496Z,10.63
2023-02-25T05:51:01.585Z,10.60
2023-02-25T05:51:33.507Z,10.53
2023-02-25T05:52:05.284Z,10.83
2023-02-25T05:52:37.149Z,10.13
2023-02-25T05:53:10.003Z,9.83
2023-02-25T05:53:44.773Z,10.70
2023-02-25T05:54:17.134Z,11.20
2023-02-25T05:54:48.914Z,11.63
2023-02-25T05:55:21.338Z,11.23
2023-02-25T05:55:53.240Z,10.73
2023-02-25T05:56:28.356Z,11.73
2023-02-25T05:57:02.010Z,11.67
2023-02-25T05:57:33.844Z,11.47
2023-02-25T05:58:05.643Z,11.53
2023-02-25T05:58:37.479Z,10.30
2023-02-25T05:59:11.371Z,11.13
2023-02-25T05:59:43.291Z,11.87
2023-02-25T06:00:15.752Z,11.20
2023-02-25T06:00:47.781Z,11.47
2023-02-25T06:01:22.987Z,11.37
2023-02-25T06:01:54.895Z,10.00
2023-02-25T06:02:26.820Z,11.00
2023-02-25T06:02:58.678Z,10.63
2023-02-25T06:03:30.520Z,11.13
2023-02-25T06:04:02.756Z,10.17
2023-02-25T06:04:34.596Z,10.67
2023-02-25T06:05:07.239Z,10.53
2023-02-25T06:05:43.304Z,10.37
2023-02-25T06:06:18.008Z,10.33
2023-02-25T06:06:50.468Z,10.63
2023-02-25T06:07:22.358Z,9.43
2023-02-25T06:07:54.238Z,10.07
2023-02-25T06:08:26.248Z,10.47
2023-02-25T06:08:59.177Z,10.30
2023-02-25T06:09:32.268Z,9.93
2023-02-25T06:10:04.934Z,9.77
2023-02-25T06:10:38.794Z,10.40
2023-02-25T06:11:14.458Z,10.43
2023-02-25T06:11:48.110Z,11.33
2023-02-25T06:12:19.971Z,11.67
2023-02-25T06:12:51.880Z,11.33
2023-02-25T06:13:23.701Z,13.13
2023-02-25T06:13:57.232Z,14.00
2023-02-25T06:14:29.175Z,12.57
2023-02-25T06:15:01.040Z,12.37
2023-02-25T06:15:32.888Z,12.30
2023-02-25T06:16:05.868Z,11.63
2023-02-25T06:16:39.424Z,12.27
2023-02-25T06:17:12.009Z,12.50
2023-02-25T06:17:43.977Z,11.10
2023-02-25T06:18:15.791Z,10.27
2023-02-25T06:18:49.724Z,10.27
2023-02-25T06:19:21.658Z,10.83
2023-02-25T06:19:53.806Z,11.13
2023-02-25T06:20:25.732Z,10.67
2023-02-25T06:21:05.528Z,10.10
2023-02-25T06:21:37.473Z,9.47
2023-02-25T06:22:45.616Z,10.37
2023-02-25T06:23:18.721Z,9.70
2023-02-25T06:23:53.840Z,9.93
2023-02-25T06:25:01.724Z,10.20
2023-02-25T06:25:36.692Z,9.73
2023-02-25T06:26:43.577Z,9.60
2023-02-25T06:27:49.653Z,9.43
2023-02-25T06:28:24.765Z,10.20
2023-02-25T06:28:57.325Z,10.17
2023-02-25T06:29:30.595Z,9.70
2023-02-25T06:31:26.396Z,9.10
2023-02-25T06:32:01.693Z,10.03
2023-02-25T06:32:35.505Z,9.80
2023-02-25T06:33:10.558Z,9.77
2023-02-25T06:33:45.852Z,9.13
2023-02-25T06:34:19.679Z,9.47
2023-02-25T06:34:53.305Z,10.07
2023-02-25T06:35:28.530Z,10.23
2023-02-25T06:36:01.377Z,9.67
2023-02-25T06:36:36.618Z,9.60
2023-02-25T06:37:11.245Z,9.17
2023-02-25T06:37:44.845Z,9.73
2023-02-25T06:38:18.942Z,11.07
2023-02-25T06:38:50.856Z,10.53
2023-02-25T06:39:26.201Z,10.77
2023-02-25T06:40:01.289Z,10.40
2023-02-25T06:40:38.439Z,10.87
2023-02-25T06:41:17.461Z,10.63
2023-02-25T06:42:25.633Z,11.03
2023-02-25T06:42:57.714Z,10.67
2023-02-25T06:43:29.553Z,11.47
2023-02-25T06:44:42.745Z,10.97
2023-02-25T06:45:17.755Z,9.47
2023-02-25T06:45:52.637Z,9.10
2023-02-25T06:46:26.494Z,9.93
2023-02-25T06:46:58.624Z,10.50
2023-02-25T06:47:30.514Z,9.87
2023-02-25T06:48:02.440Z,9.50
2023-02-25T06:48:34.389Z,8.90
2023-02-25T06:49:06.191Z,8.77
2023-02-25T06:49:38.126Z,9.30
2023-02-25T06:50:10.453Z,8.90
2023-02-25T06:50:42.657Z,9.23
2023-02-25T06:51:14.997Z,9.50
2023-02-25T06:51:48.903Z,10.03
2023-02-25T06:52:20.747Z,9.90
2023-02-25T06:52:52.643Z,9.83
2023-02-25T06:53:24.586Z,9.80
2023-02-25T06:53:56.406Z,9.33
2023-02-25T06:54:28.340Z,9.93
2023-02-25T06:55:00.149Z,9.93
2023-02-25T06:55:32.202Z,10.10
2023-02-25T06:56:04.367Z,9.77
2023-02-25T06:56:36.177Z,9.23
2023-02-25T06:57:08.049Z,8.90
2023-02-25T06:57:39.918Z,8.03
2023-02-25T06:58:12.521Z,8.03
2023-02-25T06:58:45.465Z,7.83
2023-02-25T06:59:17.298Z,7.53
2023-02-25T06:59:49.969Z,7.50
2023-02-25T07:00:22.129Z,7.47
2023-02-25T07:00:53.955Z,7.83
2023-02-25T07:01:26.417Z,6.77
2023-02-25T07:01:59.494Z,6.97
2023-02-25T07:02:32.052Z,6.87
2023-02-25T07:03:04.128Z,6.23
2023-02-25T07:03:36.441Z,6.30
2023-02-25T07:04:08.249Z,5.50
2023-02-25T07:04:43.571Z,5.80
2023-02-25T07:05:15.689Z,5.97
2023-02-25T07:05:47.464Z,6.33
2023-02-25T07:06:19.674Z,7.73
2023-02-25T07:06:51.551Z,7.50
2023-02-25T07:07:23.551Z,8.17
2023-02-25T07:07:55.421Z,7.43
2023-02-25T07:08:27.254Z,8.33
2023-02-25T07:08:59.057Z,8.90
2023-02-25T07:09:30.848Z,8.97
2023-02-25T07:10:02.716Z,9.57
2023-02-25T07:10:35.352Z,9.27
2023-02-25T07:11:18.797Z,13.50
2023-02-25T07:11:50.563Z,14.27
2023-02-25T07:12:22.647Z,15.17
2023-02-25T07:12:54.428Z,19.43
2023-02-25T07:13:26.262Z,15.67
2023-02-25T07:13:58.303Z,15.43
2023-02-25T07:14:30.109Z,19.57
2023-02-25T07:15:02.023Z,22.37
2023-02-25T07:15:34.053Z,39.40
2023-02-25T07:16:06.222Z,27.83
2023-02-25T07:16:38.125Z,28.57
2023-02-25T07:17:09.912Z,28.10
2023-02-25T07:17:41.786Z,24.17
2023-02-25T07:18:13.653Z,26.67
2023-02-25T07:18:45.681Z,21.97
2023-02-25T07:19:17.459Z,23.97
2023-02-25T07:19:49.341Z,23.23
2023-02-25T07:20:21.225Z,22.47
2023-02-25T07:20:53.086Z,15.87
2023-02-25T07:21:29.385Z,15.03
2023-02-25T07:22:01.126Z,15.50
2023-02-25T07:22:32.984Z,14.90
2023-02-25T07:23:05.458Z,14.53
2023-02-25T07:23:37.310Z,12.90
2023-02-25T07:24:12.949Z,11.43
2023-02-25T07:24:45.594Z,11.03
2023-02-25T07:25:17.620Z,10.97
2023-02-25T07:25:50.340Z,11.60
2023-02-25T07:26:22.523Z,10.80
2023-02-25T07:26:55.812Z,10.83
2023-02-25T07:27:27.678Z,10.83
2023-02-25T07:27:59.917Z,10.53
2023-02-25T07:28:32.146Z,11.03
2023-02-25T07:29:05.379Z,10.47
2023-02-25T07:29:37.141Z,11.60
2023-02-25T07:30:13.927Z,11.13
2023-02-25T07:30:46.296Z,11.03
2023-02-25T07:31:20.154Z,11.13
2023-02-25T07:31:52.109Z,10.43
2023-02-25T07:32:25.622Z,10.53
2023-02-25T07:32:57.990Z,9.43
2023-02-25T07:33:30.884Z,9.60
2023-02-25T07:34:04.531Z,11.10
2023-02-25T07:34:39.206Z,9.97
2023-02-25T07:35:11.203Z,10.73
2023-02-25T07:35:42.998Z,10.10
2023-02-25T07:36:16.043Z,10.63
2023-02-25T07:36:47.940Z,13.00
2023-02-25T07:37:19.747Z,12.40
2023-02-25T07:37:51.881Z,11.07